createdAt,value
2023-01-02T00:02:07.842Z,67.03
2023-01-02T00:04:39.671Z,66.83
2023-01-02T00:07:11.550Z,67.32
2023-01-02T00:09:43.568Z,67.02
2023-01-02T00:12:15.477Z,66.92
2023-01-02T00:14:47.312Z,67.02
2023-01-02T00:17:19.680Z,67.29
2023-01-02T00:19:51.736Z,66.73
2023-01-02T00:22:23.949Z,67.08
2023-01-02T00:24:55.964Z,66.95
2023-01-02T00:27:28.006Z,66.72
2023-01-02T00:29:59.965Z,66.67
2023-01-02T00:32:31.862Z,66.76
2023-01-02T00:35:04.032Z,66.97
2023-01-02T00:37:36.553Z,66.95
2023-01-02T00:40:14.161Z,67.18
2023-01-02T00:42:46.203Z,67.10
2023-01-02T00:45:18.158Z,66.83
2023-01-02T00:47:50.179Z,66.96
2023-01-02T00:50:22.178Z,67.06
2023-01-02T00:52:54.088Z,66.89
2023-01-02T00:55:25.934Z,67.21
2023-01-02T00:57:57.816Z,67.34
2023-01-02T01:00:30.220Z,66.72
2023-01-02T01:03:02.206Z,66.42
2023-01-02T01:05:34.084Z,66.54
2023-01-02T01:08:07.088Z,66.65
2023-01-02T01:10:39.013Z,66.60
2023-01-02T01:13:10.955Z,66.28
2023-01-02T01:15:42.828Z,65.97
2023-01-02T01:18:14.709Z,65.93
2023-01-02T01:20:46.692Z,66.04
2023-01-02T01:23:18.532Z,66.00
2023-01-02T01:25:50.407Z,66.03
2023-01-02T01:28:22.588Z,66.23
2023-01-02T01:30:54.461Z,65.73
2023-01-02T01:33:26.293Z,65.87
2023-01-02T01:36:05.655Z,65.65
2023-01-02T01:38:37.629Z,65.60
2023-01-02T01:41:11.726Z,65.64
2023-01-02T01:43:46.629Z,65.45
2023-01-02T01:46:52.015Z,66.00
2023-01-02T01:49:29.746Z,66.01
2023-01-02T01:52:07.142Z,65.62
2023-01-02T01:54:50.400Z,65.78
2023-01-02T01:57:51.457Z,65.53
2023-01-02T02:00:23.737Z,65.50
2023-01-02T02:02:59.708Z,65.06
2023-01-02T02:05:32.444Z,65.33
2023-01-02T02:08:19.323Z,65.33
2023-01-02T02:10:53.258Z,65.58
2023-01-02T02:13:25.333Z,65.46
2023-01-02T02:16:18.577Z,65.33
2023-01-02T02:19:00.947Z,65.38
2023-01-02T02:21:59.243Z,65.14
2023-01-02T02:24:56.140Z,65.03
2023-01-02T02:27:49.222Z,65.14
2023-01-02T02:30:30.924Z,65.15
2023-01-02T02:33:23.325Z,65.47
2023-01-02T02:36:05.317Z,65.44
2023-01-02T02:38:45.468Z,65.37
2023-01-02T02:41:33.861Z,65.04
2023-01-02T02:44:27.135Z,65.25
2023-01-02T02:47:06.636Z,65.24
2023-01-02T02:49:44.460Z,65.43
2023-01-02T02:52:40.820Z,65.39
2023-01-02T02:55:24.964Z,65.06
2023-01-02T02:57:59.180Z,65.09
2023-01-02T03:00:31.326Z,65.37
2023-01-02T03:03:15.233Z,65.23
2023-01-02T03:06:14.252Z,65.03
2023-01-02T03:09:21.593Z,65.22
2023-01-02T03:11:59.402Z,65.15
2023-01-02T03:14:42.983Z,65.39
2023-01-02T03:17:50.233Z,65.42
2023-01-02T03:20:27.182Z,65.62
2023-01-02T03:23:05.551Z,65.54
2023-01-02T03:25:38.420Z,65.77
2023-01-02T03:28:12.500Z,65.70
2023-01-02T03:30:47.730Z,65.79
2023-01-02T03:33:26.364Z,65.73
2023-01-02T03:36:03.822Z,65.74
2023-01-02T03:39:02.224Z,65.76
2023-01-02T03:41:39.572Z,65.56
2023-01-02T03:44:13.177Z,65.53
2023-01-02T03:46:45.153Z,65.57
2023-01-02T03:49:27.215Z,65.79
2023-01-02T03:51:59.665Z,65.56
2023-01-02T03:54:32.010Z,65.60
2023-01-02T03:57:17.301Z,65.59
2023-01-02T04:00:01.928Z,65.71
2023-01-02T04:02:57.068Z,65.66
2023-01-02T04:05:43.930Z,65.48
2023-01-02T04:08:27.162Z,65.68
2023-01-02T04:11:01.249Z,65.56
2023-01-02T04:13:41.121Z,65.74
2023-01-02T04:16:19.447Z,65.96
2023-01-02T04:19:13.600Z,65.72
2023-01-02T04:21:48.841Z,65.94
2023-01-02T04:24:28.983Z,66.04
2023-01-02T04:27:08.187Z,66.15
2023-01-02T04:29:40.407Z,66.21
2023-01-02T04:32:23.393Z,66.28
2023-01-02T04:34:57.324Z,66.28
2023-01-02T04:37:37.498Z,66.13
2023-01-02T04:40:29.284Z,66.58
2023-01-02T04:43:01.273Z,66.66
2023-01-02T04:45:33.202Z,66.58
2023-01-02T04:48:05.559Z,66.97
2023-01-02T04:50:37.557Z,66.92
2023-01-02T04:53:11.069Z,67.17
2023-01-02T04:55:43.087Z,67.19
2023-01-02T04:58:15.432Z,67.27
2023-01-02T05:00:47.366Z,67.52
2023-01-02T05:03:19.315Z,67.81
2023-01-02T05:05:51.372Z,67.90
2023-01-02T05:08:23.337Z,68.10
2023-01-02T05:10:55.438Z,68.32
2023-01-02T05:13:28.918Z,68.47
2023-01-02T05:16:01.124Z,68.52
2023-01-02T05:18:33.055Z,68.59
2023-01-02T05:21:30.024Z,68.22
2023-01-02T05:24:03.786Z,68.92
2023-01-02T05:26:35.723Z,69.24
2023-01-02T05:29:07.667Z,69.56
2023-01-02T05:31:39.621Z,69.36
2023-01-02T05:34:15.199Z,69.21
2023-01-02T05:36:47.174Z,69.47
2023-01-02T05:39:19.120Z,69.28
2023-01-02T05:41:51.037Z,69.10
2023-01-02T05:44:23.025Z,69.41
2023-01-02T05:46:55.023Z,69.45
2023-01-02T05:49:27.177Z,69.57
2023-01-02T05:51:59.531Z,69.72
2023-01-02T05:54:31.357Z,69.88
2023-01-02T05:57:03.384Z,70.17
2023-01-02T05:59:36.385Z,70.24
2023-01-02T06:02:08.786Z,70.07
2023-01-02T06:04:41.076Z,70.14
2023-01-02T06:07:13.202Z,70.49
2023-01-02T06:09:45.159Z,70.23
2023-01-02T06:12:17.121Z,70.50
2023-01-02T06:14:52.060Z,70.28
2023-01-02T06:17:24.082Z,70.16
2023-01-02T06:19:55.938Z,70.28
2023-01-02T06:22:27.823Z,70.09
2023-01-02T06:24:59.660Z,69.98
2023-01-02T06:27:33.106Z,70.00
2023-01-02T06:30:05.440Z,69.71
2023-01-02T06:32:37.340Z,70.17
2023-01-02T06:35:09.493Z,70.02
2023-01-02T06:37:45.012Z,70.03
2023-01-02T06:40:17.125Z,70.02
2023-01-02T06:42:49.036Z,70.19
2023-01-02T06:45:21.100Z,70.25
2023-01-02T06:48:00.731Z,70.00
2023-01-02T06:50:35.049Z,70.08
2023-01-02T06:53:07.285Z,70.34
2023-01-02T06:55:39.853Z,70.26
2023-01-02T06:58:17.577Z,70.19
2023-01-02T07:00:51.398Z,70.36
2023-01-02T07:03:23.335Z,70.20
2023-01-02T07:05:55.330Z,70.00
2023-01-02T07:08:27.324Z,69.96
2023-01-02T07:11:17.575Z,69.97
2023-01-02T07:13:52.191Z,70.11
2023-01-02T07:16:24.924Z,70.05
2023-01-02T07:18:57.044Z,70.19
2023-01-02T07:21:29.915Z,70.07
2023-01-02T07:24:01.909Z,70.26
2023-01-02T07:26:33.876Z,70.36
2023-01-02T07:29:06.084Z,70.21
2023-01-02T07:31:38.108Z,70.27
2023-01-02T07:34:10.079Z,70.67
2023-01-02T07:36:42.070Z,70.25
2023-01-02T07:39:14.002Z,70.40
2023-01-02T07:41:45.987Z,69.98
2023-01-02T07:44:17.848Z,69.94
2023-01-02T07:46:49.867Z,69.75
2023-01-02T07:49:21.820Z,69.65
2023-01-02T07:51:53.776Z,69.45
2023-01-02T07:54:25.767Z,69.25
2023-01-02T07:56:57.987Z,68.79
2023-01-02T07:59:29.923Z,69.27
2023-01-02T08:02:01.880Z,69.21
2023-01-02T08:04:33.872Z,68.92
2023-01-02T08:07:05.912Z,69.03
2023-01-02T08:09:37.843Z,69.28
2023-01-02T08:12:09.825Z,69.29
2023-01-02T08:14:41.785Z,69.22
2023-01-02T08:17:13.842Z,68.92
2023-01-02T08:19:45.796Z,68.69
2023-01-02T08:22:17.809Z,68.61
2023-01-02T08:24:49.762Z,68.37
2023-01-02T08:27:21.633Z,68.40
2023-01-02T08:29:53.538Z,68.46
2023-01-02T08:32:25.550Z,68.07
2023-01-02T08:34:57.398Z,67.69
2023-01-02T08:37:29.265Z,67.71
2023-01-02T08:40:01.096Z,67.42
2023-01-02T08:42:33.029Z,67.45
2023-01-02T08:45:05.348Z,67.36
2023-01-02T08:47:37.214Z,67.72
2023-01-02T08:50:09.251Z,67.29
2023-01-02T08:52:41.116Z,67.16
2023-01-02T08:55:13.660Z,67.11
2023-01-02T08:57:45.512Z,66.84
2023-01-02T09:00:17.657Z,66.93
2023-01-02T09:02:49.622Z,66.91
2023-01-02T09:05:21.659Z,66.89
2023-01-02T09:07:53.504Z,66.85
2023-01-02T09:10:25.950Z,66.79
2023-01-02T09:12:59.056Z,66.25
2023-01-02T09:15:32.067Z,66.22
2023-01-02T09:18:04.048Z,65.85
2023-01-02T09:20:40.422Z,65.84
2023-01-02T09:23:12.628Z,65.63
2023-01-02T09:25:44.548Z,65.86
2023-01-02T09:28:17.977Z,65.92
2023-01-02T09:30:49.940Z,65.56
2023-01-02T09:33:23.006Z,65.21
2023-01-02T09:35:54.951Z,65.47
2023-01-02T09:38:26.903Z,65.01
2023-01-02T09:41:01.659Z,65.15
2023-01-02T09:43:36.469Z,65.38
2023-01-02T09:46:42.296Z,64.98
2023-01-02T09:49:18.891Z,65.20
2023-01-02T09:51:51.674Z,64.96
2023-01-02T09:54:27.728Z,64.87
2023-01-02T09:57:33.280Z,63.87
2023-01-02T10:00:15.831Z,64.26
2023-01-02T10:03:15.847Z,64.48
2023-01-02T10:06:21.871Z,64.09
2023-01-02T10:09:14.796Z,63.72
2023-01-02T10:11:52.352Z,63.34
2023-01-02T10:14:53.715Z,63.80
2023-01-02T10:17:29.448Z,63.20
2023-01-02T10:20:06.926Z,63.02
2023-01-02T10:22:47.815Z,62.51
2023-01-02T10:25:19.482Z,62.22
2023-01-02T10:28:25.739Z,61.74
2023-01-02T10:31:07.510Z,62.21
2023-01-02T10:33:58.373Z,61.67
2023-01-02T10:36:42.016Z,61.42
2023-01-02T10:39:20.533Z,61.20
2023-01-02T10:41:56.077Z,61.20
2023-01-02T10:44:31.356Z,61.40
2023-01-02T10:47:31.323Z,60.84
2023-01-02T10:50:09.072Z,60.66
2023-01-02T10:52:51.117Z,60.62
2023-01-02T10:55:52.459Z,60.42
2023-01-02T10:58:27.010Z,60.80
2023-01-02T11:01:07.825Z,60.84
2023-01-02T11:03:40.121Z,60.79
2023-01-02T11:06:31.191Z,60.66
2023-01-02T11:09:22.921Z,60.41
2023-01-02T11:12:01.911Z,60.13
2023-01-02T11:14:35.985Z,60.11
2023-01-02T11:17:13.457Z,60.46
2023-01-02T11:19:49.339Z,60.17
2023-01-02T11:22:24.190Z,60.16
2023-01-02T11:25:02.621Z,59.97
2023-01-02T11:27:41.989Z,60.23
2023-01-02T11:30:28.150Z,59.79
2023-01-02T11:33:21.884Z,59.83
2023-01-02T11:35:57.583Z,60.14
2023-01-02T11:38:43.881Z,59.81
2023-01-02T11:41:50.536Z,59.65
2023-01-02T11:44:29.869Z,59.73
2023-01-02T11:47:03.447Z,59.99
2023-01-02T11:49:42.845Z,59.73
2023-01-02T11:52:19.187Z,59.80
2023-01-02T11:55:18.981Z,59.70
2023-01-02T11:57:59.923Z,59.62
2023-01-02T12:00:35.434Z,59.19
2023-01-02T12:03:18.659Z,59.47
2023-01-02T12:06:22.768Z,59.57
2023-01-02T12:09:04.060Z,59.59
2023-01-02T12:11:52.112Z,59.49
2023-01-02T12:14:54.339Z,59.62
2023-01-02T12:18:00.846Z,59.54
2023-01-02T12:20:58.709Z,59.30
2023-01-02T12:23:37.106Z,59.34
2023-01-02T12:26:33.764Z,59.08
2023-01-02T12:29:51.102Z,58.87
2023-01-02T12:32:45.871Z,58.99
2023-01-02T12:35:20.637Z,58.55
2023-01-02T12:37:55.357Z,58.98
2023-01-02T12:40:45.737Z,59.33
2023-01-02T12:43:36.570Z,58.94
2023-01-02T12:46:17.407Z,59.27
2023-01-02T12:49:15.051Z,59.13
2023-01-02T12:52:03.937Z,59.35
2023-01-02T12:54:47.664Z,59.31
2023-01-02T12:57:46.966Z,59.54
2023-01-02T13:00:45.115Z,59.55
2023-01-02T13:03:43.912Z,59.50
2023-01-02T13:06:43.312Z,60.10
2023-01-02T13:09:36.835Z,59.99
2023-01-02T13:12:20.562Z,59.92
2023-01-02T13:15:14.185Z,60.49
2023-01-02T13:17:51.694Z,60.42
2023-01-02T13:20:51.351Z,60.68
2023-01-02T13:23:32.064Z,60.43
2023-01-02T13:26:10.181Z,60.86
2023-01-02T13:29:03.890Z,60.96
2023-01-02T13:31:47.953Z,60.96
2023-01-02T13:34:30.853Z,61.15
2023-01-02T13:37:10.248Z,61.11
2023-01-02T13:39:42.151Z,61.35
2023-01-02T13:42:42.814Z,61.14
2023-01-02T13:45:16.617Z,61.46
2023-01-02T13:48:00.790Z,61.70
2023-01-02T13:50:35.931Z,61.76
2023-01-02T13:53:10.737Z,62.19
2023-01-02T13:55:42.751Z,62.31
2023-01-02T13:58:14.752Z,61.96
2023-01-02T14:00:54.444Z,62.04
2023-01-02T14:03:30.070Z,62.14
2023-01-02T14:06:05.197Z,62.28
2023-01-02T14:08:39.757Z,62.59
2023-01-02T14:11:20.148Z,62.55
2023-01-02T14:13:54.826Z,62.23
2023-01-02T14:16:26.793Z,62.42
2023-01-02T14:19:14.158Z,62.57
2023-01-02T14:22:05.806Z,62.65
2023-01-02T14:24:40.911Z,62.65
2023-01-02T14:27:15.896Z,62.81
2023-01-02T14:30:13.459Z,63.16
2023-01-02T14:32:47.406Z,63.30
2023-01-02T14:35:19.733Z,63.38
2023-01-02T14:37:56.855Z,63.53
2023-01-02T14:40:28.676Z,63.71
2023-01-02T14:43:32.732Z,64.31
2023-01-02T14:46:04.765Z,63.74
2023-01-02T14:49:01.581Z,64.05
2023-01-02T14:52:01.078Z,64.31
2023-01-02T14:54:50.445Z,64.16
2023-01-02T14:57:33.012Z,64.32
2023-01-02T15:00:12.140Z,64.64
2023-01-02T15:02:48.775Z,64.64
2023-01-02T15:05:34.998Z,64.75
2023-01-02T15:08:11.540Z,64.77
2023-01-02T15:11:19.667Z,64.89
2023-01-02T15:14:05.428Z,64.94
2023-01-02T15:16:45.570Z,65.00
2023-01-02T15:19:22.360Z,65.00
2023-01-02T15:21:55.643Z,65.10
2023-01-02T15:24:34.443Z,64.82
2023-01-02T15:27:24.259Z,65.17
2023-01-02T15:30:18.387Z,65.20
2023-01-02T15:32:50.333Z,65.14
2023-01-02T15:35:30.217Z,65.26
2023-01-02T15:38:05.456Z,65.27
2023-01-02T15:40:38.366Z,64.94
2023-01-02T15:43:34.449Z,65.27
2023-01-02T15:46:06.736Z,65.06
2023-01-02T15:48:40.103Z,65.27
2023-01-02T15:51:18.057Z,65.46
2023-01-02T15:53:50.517Z,65.13
2023-01-02T15:56:40.109Z,65.49
2023-01-02T15:59:34.851Z,65.15
2023-01-02T16:02:18.905Z,65.37
2023-01-02T16:05:06.499Z,65.76
2023-01-02T16:07:39.336Z,65.37
2023-01-02T16:10:19.640Z,65.73
2023-01-02T16:12:55.995Z,65.87
2023-01-02T16:15:33.069Z,65.54
2023-01-02T16:18:05.051Z,65.48
2023-01-02T16:20:37.052Z,65.37
2023-01-02T16:23:19.701Z,65.27
2023-01-02T16:25:52.124Z,65.71
2023-01-02T16:28:35.689Z,65.46
2023-01-02T16:31:16.227Z,65.58
2023-01-02T16:33:48.409Z,65.67
2023-01-02T16:36:24.889Z,65.57
2023-01-02T16:38:59.824Z,65.82
2023-01-02T16:41:37.610Z,65.76
2023-01-02T16:44:12.743Z,66.19
2023-01-02T16:46:47.138Z,65.73
2023-01-02T16:49:21.940Z,65.96
2023-01-02T16:51:54.902Z,65.92
2023-01-02T16:54:26.905Z,65.83
2023-01-02T16:56:58.894Z,66.02
2023-01-02T16:59:31.029Z,66.06
2023-01-02T17:02:05.871Z,66.05
2023-01-02T17:04:37.945Z,66.00
2023-01-02T17:07:10.681Z,66.13
2023-01-02T17:09:42.646Z,66.15
2023-01-02T17:12:14.506Z,65.98
2023-01-02T17:14:46.489Z,65.97
2023-01-02T17:17:18.529Z,65.99
2023-01-02T17:19:50.497Z,65.83
2023-01-02T17:22:22.468Z,65.66
2023-01-02T17:24:56.060Z,65.78
2023-01-02T17:27:28.008Z,65.79
2023-01-02T17:30:00.196Z,66.27
2023-01-02T17:32:32.571Z,66.26
2023-01-02T17:35:04.863Z,65.88
2023-01-02T17:37:37.924Z,65.76
2023-01-02T17:40:12.438Z,66.07
2023-01-02T17:42:44.706Z,66.04
2023-01-02T17:45:16.670Z,66.00
2023-01-02T17:48:10.390Z,66.24
2023-01-02T17:50:40.897Z,66.63
2023-01-02T17:53:12.836Z,66.56
2023-01-02T17:55:52.079Z,66.33
2023-01-02T17:58:43.988Z,66.69
2023-01-02T18:01:21.380Z,66.65
2023-01-02T18:03:53.385Z,66.62
2023-01-02T18:06:25.306Z,66.75
2023-01-02T18:08:57.185Z,67.06
2023-01-02T18:11:29.152Z,67.05
2023-01-02T18:14:02.961Z,67.24
2023-01-02T18:16:40.301Z,67.26
2023-01-02T18:19:18.258Z,67.09
2023-01-02T18:21:51.202Z,67.40
2023-01-02T18:24:32.447Z,67.97
2023-01-02T18:27:32.908Z,67.78
2023-01-02T18:30:13.197Z,68.18
2023-01-02T18:32:46.849Z,67.97
2023-01-02T18:35:56.108Z,67.70
2023-01-02T18:38:38.221Z,68.10
2023-01-02T18:41:27.739Z,68.77
2023-01-02T18:44:35.499Z,68.44
2023-01-02T18:47:26.154Z,68.54
2023-01-02T18:50:29.240Z,68.98
2023-01-02T18:53:19.414Z,68.85
2023-01-02T18:55:55.975Z,69.02
2023-01-02T18:58:57.426Z,69.22
2023-01-02T19:01:31.092Z,69.35
2023-01-02T19:04:27.311Z,69.36
2023-01-02T19:07:14.532Z,69.39
2023-01-02T19:09:46.430Z,69.80
2023-01-02T19:12:45.395Z,70.03
2023-01-02T19:15:37.002Z,70.06
2023-01-02T19:18:14.589Z,70.35
2023-01-02T19:20:50.313Z,70.42
2023-01-02T19:23:28.340Z,70.69
2023-01-02T19:26:14.655Z,70.36
2023-01-02T19:29:19.439Z,70.44
2023-01-02T19:32:25.185Z,71.24
2023-01-02T19:35:02.153Z,70.83
2023-01-02T19:37:39.447Z,71.20
2023-01-02T19:40:19.866Z,71.07
2023-01-02T19:42:55.659Z,71.30
2023-01-02T19:45:29.639Z,71.30
2023-01-02T19:48:01.577Z,71.62
2023-01-02T19:50:33.511Z,71.41
2023-01-02T19:53:05.510Z,71.05
2023-01-02T19:55:37.538Z,71.38
2023-01-02T19:58:09.631Z,71.76
2023-01-02T20:00:41.484Z,71.87
2023-01-02T20:03:13.935Z,71.72
2023-01-02T20:05:45.913Z,71.74
2023-01-02T20:08:17.762Z,71.52
2023-01-02T20:10:49.715Z,71.67
2023-01-02T20:13:21.576Z,71.62
2023-01-02T20:15:53.556Z,71.61
2023-01-02T20:18:25.553Z,71.23
2023-01-02T20:20:57.505Z,71.54
2023-01-02T20:23:29.376Z,71.48
2023-01-02T20:26:01.821Z,71.36
2023-01-02T20:28:34.118Z,71.13
2023-01-02T20:31:06.094Z,71.75
2023-01-02T20:33:38.083Z,71.47
2023-01-02T20:36:13.721Z,71.71
2023-01-02T20:38:45.956Z,71.90
2023-01-02T20:41:17.833Z,71.50
2023-01-02T20:43:49.804Z,72.05
2023-01-02T20:46:21.834Z,72.04
2023-01-02T20:48:53.771Z,72.31
2023-01-02T20:51:25.727Z,72.59
2023-01-02T20:53:59.541Z,72.51
2023-01-02T20:56:31.699Z,72.59
2023-01-02T20:59:04.430Z,72.57
2023-01-02T21:01:36.369Z,72.82
2023-01-02T21:04:09.324Z,72.68
2023-01-02T21:06:41.296Z,72.97
2023-01-02T21:09:13.268Z,72.61
2023-01-02T21:11:45.260Z,72.72
2023-01-02T21:14:17.220Z,72.62
2023-01-02T21:16:49.192Z,72.59
2023-01-02T21:19:21.148Z,72.50
2023-01-02T21:21:53.108Z,72.69
2023-01-02T21:24:25.079Z,72.79
2023-01-02T21:26:57.056Z,72.86
2023-01-02T21:29:29.047Z,72.71
2023-01-02T21:32:00.890Z,72.56
2023-01-02T21:34:32.963Z,72.57
2023-01-02T21:37:04.900Z,72.31
2023-01-02T21:39:36.893Z,72.11
2023-01-02T21:42:18.054Z,72.56
2023-01-02T21:44:50.077Z,72.63
2023-01-02T21:47:22.079Z,72.18
2023-01-02T21:49:54.131Z,72.30
2023-01-02T21:52:26.128Z,72.24
2023-01-02T21:54:58.064Z,72.28
2023-01-02T21:57:54.229Z,71.95
2023-01-02T22:00:25.236Z,72.08
2023-01-02T22:02:57.382Z,71.83
2023-01-02T22:05:29.460Z,71.70
2023-01-02T22:08:01.549Z,71.60
2023-01-02T22:10:33.561Z,71.78
2023-01-02T22:13:05.475Z,71.50
2023-01-02T22:15:37.439Z,71.20
2023-01-02T22:18:09.325Z,71.26
2023-01-02T22:20:41.220Z,71.55
2023-01-02T22:23:13.055Z,71.00
2023-01-02T22:25:44.935Z,70.97
2023-01-02T22:28:16.881Z,70.99
2023-01-02T22:30:48.868Z,70.93
2023-01-02T22:33:20.917Z,71.11
2023-01-02T22:35:52.948Z,71.14
2023-01-02T22:38:24.995Z,71.16
2023-01-02T22:40:57.073Z,71.14
2023-01-02T22:43:36.076Z,71.50
2023-01-02T22:46:20.034Z,71.68
2023-01-02T22:48:52.758Z,71.57
2023-01-02T22:51:57.670Z,71.10
2023-01-02T22:54:20.647Z,71.54
2023-01-02T22:56:52.564Z,71.55
2023-01-02T22:59:24.513Z,72.00
2023-01-02T23:01:56.557Z,72.10
2023-01-02T23:04:28.499Z,71.97
2023-01-02T23:07:23.950Z,71.82
2023-01-02T23:09:52.247Z,71.96
2023-01-02T23:12:24.089Z,72.04
2023-01-02T23:14:55.962Z,71.83
2023-01-02T23:17:46.464Z,71.92
2023-01-02T23:20:18.797Z,71.66
2023-01-02T23:22:51.155Z,72.01
2023-01-02T23:25:23.778Z,71.86
2023-01-02T23:27:55.656Z,71.92
2023-01-02T23:30:27.534Z,72.22
2023-01-02T23:32:59.375Z,71.80
2023-01-02T23:35:31.562Z,71.64
2023-01-02T23:38:03.428Z,72.05
2023-01-02T23:40:35.303Z,71.91
2023-01-02T23:43:07.131Z,71.73
2023-01-02T23:45:39.090Z,71.66
2023-01-02T23:48:11.077Z,71.64
2023-01-02T23:50:46.404Z,71.55
2023-01-02T23:53:18.279Z,71.67
2023-01-02T23:55:50.152Z,71.27
2023-01-02T23:58:23.183Z,71.17
